Time;durP1;ratioP1;P1;durP2;ratioP2;P2;SDS_P1;SDS_P2;PMS_P1;PMS_P2;Temp;Humidity;BMP_temperature;BMP_pressure;BME280_temperature;BME280_humidity;BME280_pressure;Samples;Min_cycle;Max_cycle;Signal;HPM_P1;HPM_P2
2022/01/28 00:00:14;;;;;;;;;38.00;30.00;;;;;3.37;89.63;99627.56;6282377;20;2874262;-42
2022/01/28 00:05:19;;;;;;;;;45.50;37.00;;;;;3.42;90.29;99618.56;6282752;20;2868100;-39
2022/01/28 00:07:50;;;;;;;;;36.50;29.00;;;;;3.53;90.49;99636.78;6283204;20;2861747;-40
2022/01/28 00:10:23;;;;;;;;;43.50;36.00;;;;;3.40;90.59;99641.63;6279969;20;2867602;-40
2022/01/28 00:15:33;;;;;;;;;38.00;35.00;;;;;3.62;91.08;99655.03;6277734;20;2852333;-41
2022/01/28 00:39:29;;;;;;;;;30.00;26.00;;;;;3.50;92.06;99658.09;6279608;20;2500296;-42
2022/01/28 00:41:59;;;;;;;;;20.67;19.33;;;;;3.57;91.58;99664.94;6282466;20;3555495;-42
2022/01/28 00:44:27;;;;;;;;;25.33;23.33;;;;;3.48;91.57;99666.13;6278511;20;3560658;-41
2022/01/28 00:46:55;;;;;;;;;23.00;22.00;;;;;3.48;91.63;99659.97;6282079;20;2500217;-40
2022/01/28 00:49:23;;;;;;;;;29.00;24.00;;;;;3.55;92.18;99657.94;6280817;20;2500256;-41
2022/01/28 00:51:52;;;;;;;;;29.00;21.67;;;;;3.53;91.78;99658.03;6281434;20;3566898;-40
2022/01/28 00:54:20;;;;;;;;;19.00;19.00;;;;;3.54;91.76;99638.50;6281151;20;2823263;-42
2022/01/28 00:56:48;;;;;;;;;30.00;27.50;;;;;3.36;92.18;99604.63;6281367;20;2500302;-43
2022/01/28 00:59:16;;;;;;;;;29.00;20.00;;;;;3.28;92.48;99600.44;6280593;20;2500497;-41
2022/01/28 01:01:44;;;;;;;;;35.00;28.50;;;;;3.06;92.97;99594.97;6280809;20;2500209;-41
2022/01/28 01:04:13;;;;;;;;;35.50;31.00;;;;;3.18;92.91;99640.59;6286197;20;2862898;-42
2022/01/28 01:06:43;;;;;;;;;31.00;27.50;;;;;3.24;93.32;99661.63;6285567;20;2858653;-41
2022/01/28 01:09:11;;;;;;;;;34.50;31.00;;;;;3.26;92.68;99663.28;6283562;20;2500306;-40
2022/01/28 01:11:41;;;;;;;;;34.33;25.67;;;;;3.29;92.37;99660.56;6288106;20;2856555;-41
2022/01/28 01:14:11;;;;;;;;;35.50;28.00;;;;;3.40;94.39;99656.69;6318636;20;2856829;-41
2022/01/28 01:19:30;;;;;;;;;40.00;35.00;;;;;3.49;93.98;99673.16;6288216;20;2852358;-48
2022/01/28 01:22:00;;;;;;;;;36.00;27.50;;;;;3.25;93.69;99653.59;6284161;20;2500254;-48
2022/01/28 01:24:35;;;;;;;;;38.00;33.50;;;;;3.63;95.15;99654.09;6284565;20;2848207;-48
2022/01/28 01:27:05;;;;;;;;;36.50;36.00;;;;;3.25;93.51;99652.75;6284058;20;2500363;-47
2022/01/28 01:29:33;;;;;;;;;42.50;34.50;;;;;3.18;93.78;99652.06;6286189;20;2862747;-47
2022/01/28 01:32:11;;;;;;;;;36.00;29.00;;;;;3.12;94.10;99635.47;6285955;20;2858652;-48
2022/01/28 01:34:48;;;;;;;;;40.00;36.00;;;;;2.95;94.43;99630.69;6285638;20;2854886;-48
2022/01/28 01:37:15;;;;;;;;;37.00;31.00;;;;;2.97;94.52;99639.47;6285764;20;2500432;-48
2022/01/28 01:39:45;;;;;;;;;40.00;33.00;;;;;2.98;95.17;99639.44;6286195;20;2862745;-48
2022/01/28 01:42:43;;;;;;;;;41.00;31.00;;;;;2.86;95.29;99651.28;6319038;20;2861714;-48
2022/01/28 01:45:44;;;;;;;;;47.33;38.67;;;;;2.92;96.00;99644.91;6284357;20;2869562;-48
2022/01/28 01:53:34;;;;;;;;;48.50;38.00;;;;;3.06;95.09;99655.13;6286367;20;2873257;-48
2022/01/28 01:56:04;;;;;;;;;38.00;33.00;;;;;3.17;95.13;99660.06;6283518;20;2858583;-48
2022/01/28 01:58:35;;;;;;;;;49.67;37.00;;;;;3.19;94.85;99669.72;6285922;20;3621033;-48
2022/01/28 02:01:04;;;;;;;;;41.00;35.00;;;;;3.16;94.73;99672.47;6314471;20;2848737;-48
2022/01/28 02:03:32;;;;;;;;;46.00;40.50;;;;;3.16;94.57;99653.91;6285628;20;2873202;-48
2022/01/28 02:06:02;;;;;;;;;43.67;37.00;;;;;3.19;94.49;99653.81;6286245;20;3599317;-48
2022/01/28 02:08:34;;;;;;;;;45.67;33.33;;;;;3.23;94.42;99654.56;6314518;20;2875527;-48
2022/01/28 02:11:04;;;;;;;;;46.00;39.00;;;;;3.17;94.49;99646.81;6316144;20;3620027;-48
2022/01/28 02:13:38;;;;;;;;;41.33;27.67;;;;;3.27;94.04;99648.25;6314911;20;3621080;-48
2022/01/28 02:16:09;;;;;;;;;40.67;35.67;;;;;3.27;93.86;99657.06;6313583;20;2857695;-48
2022/01/28 02:18:38;;;;;;;;;40.00;36.00;;;;;3.30;93.78;99653.47;6317295;20;2851444;-48
2022/01/28 02:21:09;;;;;;;;;30.00;23.50;;;;;3.24;93.83;99643.06;6286402;20;2838812;-48
2022/01/28 02:23:39;;;;;;;;;41.00;34.50;;;;;3.40;93.72;99636.31;6284994;20;2842955;-48
2022/01/28 02:26:13;;;;;;;;;54.00;43.00;;;;;3.49;95.06;99630.69;6285337;20;2865879;-49
2022/01/28 02:28:50;;;;;;;;;43.33;36.00;;;;;3.39;93.39;99634.56;6286285;20;2862834;-48
2022/01/28 02:31:23;;;;;;;;;43.67;30.67;;;;;3.21;93.50;99627.22;6313992;20;2868972;-48
2022/01/28 02:33:55;;;;;;;;;34.00;33.00;;;;;3.26;93.79;99618.19;6313636;20;2852435;-42
2022/01/28 02:36:25;;;;;;;;;47.50;35.00;;;;;3.37;93.01;99625.81;6285820;20;2877441;-43
2022/01/28 02:38:54;;;;;;;;;42.50;34.00;;;;;3.23;93.18;99625.38;6283672;20;2862879;-41
2022/01/28 02:41:26;;;;;;;;;39.00;35.00;;;;;3.20;93.91;99623.69;6283377;20;2730476;-43
2022/01/28 02:44:15;;;;;;;;;33.50;31.50;;;;;3.25;94.12;99621.75;6312930;20;2848179;-42
2022/01/28 02:46:55;;;;;;;;;39.00;35.00;;;;;3.27;93.65;99603.16;6283873;20;2500357;-40
2022/01/28 02:49:33;;;;;;;;;46.50;31.50;;;;;3.22;93.97;99608.59;6284095;20;2871203;-40
2022/01/28 02:52:03;;;;;;;;;35.00;30.50;;;;;3.35;92.84;99616.16;6282486;20;2500291;-41
2022/01/28 02:54:40;;;;;;;;;36.00;28.50;;;;;3.29;92.86;99618.09;6280294;20;2853537;-41
2022/01/28 02:57:09;;;;;;;;;40.33;29.33;;;;;3.37;92.26;99614.31;6284709;20;2873214;-42
2022/01/28 02:59:39;;;;;;;;;40.67;32.00;;;;;3.44;91.60;99610.53;6314681;20;2875398;-41
2022/01/28 03:02:07;;;;;;;;;43.00;37.00;;;;;3.54;91.40;99605.78;6314443;20;2866948;-42
2022/01/28 03:07:11;;;;;;;;;41.50;29.50;;;;;3.39;91.06;99617.78;6284582;20;2859797;-48
2022/01/28 03:10:12;;;;;;;;;38.67;30.33;;;;;3.42;90.66;99622.97;6285196;20;2864414;-40
2022/01/28 03:12:36;;;;;;;;;38.67;34.67;;;;;3.51;90.48;99649.22;6313253;20;2867020;-49
2022/01/28 03:15:07;;;;;;;;;30.50;24.00;;;;;3.66;90.53;99663.75;6308548;20;2496097;-49
2022/01/28 03:22:52;;;;;;;;;33.00;24.00;;;;;3.72;89.07;99664.44;6279142;20;2860835;-41
2022/01/28 03:25:20;;;;;;;;;30.00;23.00;;;;;3.90;89.30;99664.75;6280410;20;2854563;-41
2022/01/28 03:27:52;;;;;;;;;30.00;24.50;;;;;3.90;89.74;99667.38;6282175;20;2500258;-43
2022/01/28 03:30:21;;;;;;;;;38.00;33.00;;;;;3.94;89.62;99666.34;6281255;20;2500463;-41
2022/01/28 03:32:50;;;;;;;;;33.50;28.00;;;;;3.81;88.72;99678.31;6283807;20;2849238;-42
2022/01/28 03:35:29;;;;;;;;;31.00;27.00;;;;;3.90;87.95;99662.09;6283549;20;2500226;-41
2022/01/28 03:38:02;;;;;;;;;27.50;25.00;;;;;4.01;88.34;99670.53;6281986;20;2500324;-47
2022/01/28 03:40:36;;;;;;;;;38.00;32.00;;;;;3.74;88.58;99673.22;6285277;20;2839047;-41
2022/01/28 03:43:06;;;;;;;;;36.00;25.50;;;;;3.73;89.17;99676.78;6283626;20;2871087;-41
2022/01/28 03:45:35;;;;;;;;;28.50;25.50;;;;;3.86;88.47;99663.94;6282385;20;2850246;-41
2022/01/28 03:48:04;;;;;;;;;34.00;28.00;;;;;3.65;89.71;99670.88;6281582;20;2500295;-40
2022/01/28 03:50:34;;;;;;;;;34.00;27.00;;;;;3.80;88.77;99681.91;6282158;20;3581532;-40
2022/01/28 03:53:06;;;;;;;;;34.50;27.00;;;;;3.60;89.34;99675.44;6283319;20;2850398;-41
2022/01/28 03:55:36;;;;;;;;;30.00;28.50;;;;;3.63;89.37;99678.00;6283277;20;2837837;-44
2022/01/28 03:58:04;;;;;;;;;38.50;31.00;;;;;3.58;89.69;99672.00;6280825;20;2851290;-43
2022/01/28 04:00:34;;;;;;;;;26.00;23.00;;;;;3.65;89.26;99675.31;6281520;20;2498176;-41
2022/01/28 04:13:47;;;;;;;;;30.33;24.67;;;;;3.73;88.45;99675.91;6282072;20;3576296;-41
2022/01/28 04:16:30;;;;;;;;;24.67;23.33;;;;;3.80;88.28;99681.91;6280429;20;3563789;-40
2022/01/28 04:19:01;;;;;;;;;24.33;19.33;;;;;3.96;87.70;99678.66;6284427;20;3576256;-40
2022/01/28 04:21:30;;;;;;;;;22.33;21.67;;;;;4.05;86.94;99668.63;6313373;20;3556502;-40
2022/01/28 04:23:58;;;;;;;;;21.00;17.50;;;;;4.07;86.16;99678.28;6313736;20;2830562;-41
2022/01/28 04:26:28;;;;;;;;;19.40;14.40;;;;;4.44;85.49;99673.44;6310526;20;2819122;-41
2022/01/28 04:28:57;;;;;;;;;14.80;13.80;;;;;4.51;84.77;99673.16;6307212;20;2802708;-41
2022/01/28 04:31:26;;;;;;;;;9.50;9.50;;;;;4.86;83.59;99678.94;6299971;20;1816011;-40
2022/01/28 04:33:58;;;;;;;;;13.80;12.80;;;;;4.58;83.44;99677.34;6336758;20;2814809;-40
2022/01/28 04:36:29;;;;;;;;;14.50;14.50;;;;;4.53;83.22;99675.75;6282968;20;2814805;-40
2022/01/28 04:39:11;;;;;;;;;14.33;12.33;;;;;4.55;83.05;99676.56;6281051;20;2787823;-41
2022/01/28 04:41:57;;;;;;;;;13.00;13.00;;;;;4.46;82.92;99672.47;6340282;20;2797237;-41
2022/01/28 04:44:36;;;;;;;;;10.00;7.25;;;;;4.47;83.26;99679.50;6300894;20;1817135;-40
2022/01/28 04:50:20;;;;;;;;;9.50;9.50;;;;;4.36;83.12;99655.09;6343558;20;2775341;-42
2022/01/28 04:55:52;;;;;;;;;14.00;13.40;;;;;4.05;84.19;99653.53;6305817;20;2796074;-41
2022/01/28 04:58:36;;;;;;;;;21.50;17.50;;;;;4.01;84.10;99662.56;6282253;20;2832653;-40
2022/01/28 05:04:34;;;;;;;;;20.00;16.33;;;;;3.84;84.77;99668.44;6312718;20;3553384;-41
2022/01/28 05:15:34;;;;;;;;;14.00;11.33;;;;;3.85;85.57;99699.41;6306893;20;3541964;-39
2022/01/28 05:29:11;;;;;;;;;12.00;8.00;;;;;3.95;84.04;99698.19;6308011;20;2764056;-41
2022/01/28 05:31:40;;;;;;;;;13.00;13.00;;;;;3.69;82.68;99687.56;6278638;20;2792153;-41
2022/01/28 05:34:07;;;;;;;;;10.00;9.00;;;;;3.91;81.78;99696.53;6311090;20;2748147;-41
2022/01/28 05:36:35;;;;;;;;;9.00;8.50;;;;;3.86;82.05;99706.44;6283020;20;2753584;-40
2022/01/28 05:39:03;;;;;;;;;10.00;9.00;;;;;3.85;82.32;99709.19;6311198;20;2769044;-40
2022/01/28 05:41:32;;;;;;;;;9.00;9.00;;;;;3.80;82.31;99706.66;6281964;20;2744002;-42
2022/01/28 05:44:02;;;;;;;;;11.50;11.00;;;;;3.80;82.13;99714.63;6310739;20;2777359;-40
2022/01/28 05:46:31;;;;;;;;;8.80;8.00;;;;;3.71;82.66;99709.59;6307551;20;2750317;-42
2022/01/28 05:48:59;;;;;;;;;11.50;8.00;;;;;3.51;82.71;99723.56;6311477;20;2757555;-40
2022/01/28 05:51:29;;;;;;;;;11.40;9.60;;;;;3.51;83.21;99734.16;6311046;20;2784617;-41
2022/01/28 05:53:58;;;;;;;;;7.75;7.25;;;;;3.51;83.04;99739.47;6305071;20;1812889;-41
2022/01/28 05:56:27;;;;;;;;;6.00;6.00;;;;;3.63;83.31;99733.75;6319411;20;2734630;-40
2022/01/28 05:58:56;;;;;;;;;9.00;8.00;;;;;3.48;83.79;99739.59;6319880;20;2748169;-42
2022/01/28 06:01:25;;;;;;;;;9.50;9.50;;;;;3.56;83.36;99742.84;6305650;20;1815803;-40
2022/01/28 06:03:54;;;;;;;;;6.50;5.50;;;;;3.66;83.24;99739.00;6337121;20;1813509;-41
2022/01/28 06:06:24;;;;;;;;;6.00;6.00;;;;;3.70;83.05;99735.31;6338083;20;1811893;-40
2022/01/28 06:08:57;;;;;;;;;8.25;8.25;;;;;3.66;82.89;99739.00;6337945;20;1819126;-40
2022/01/28 06:11:25;;;;;;;;;29.00;23.50;;;;;3.72;84.32;99727.31;6317042;20;2837762;-41
2022/01/28 06:13:53;;;;;;;;;17.00;17.00;;;;;4.02;84.74;99725.38;6281691;20;2803435;-40
2022/01/28 06:16:22;;;;;;;;;60.50;47.50;;;;;3.82;82.33;99727.84;6284621;20;2849343;-39
2022/01/28 06:18:54;;;;;;;;;10.57;9.71;;;;;3.89;83.72;99734.69;6327094;20;1813317;-41
2022/01/28 06:21:21;;;;;;;;;9.00;6.00;;;;;3.96;81.72;99726.47;6319821;20;2736730;-41
2022/01/28 06:23:52;;;;;;;;;16.00;13.33;;;;;3.95;82.28;99735.38;6308429;20;2810813;-40
2022/01/28 06:26:20;;;;;;;;;9.25;7.75;;;;;4.03;81.61;99737.78;6337201;20;1805507;-41
2022/01/28 06:28:50;;;;;;;;;8.20;6.80;;;;;4.03;80.73;99742.19;6342353;20;2739824;-41
2022/01/28 06:31:18;;;;;;;;;7.75;6.00;;;;;4.09;80.89;99748.19;6333551;20;1814436;-40
2022/01/28 06:33:49;;;;;;;;;10.75;6.00;;;;;3.96;80.81;99738.88;6332678;20;1821199;-41
2022/01/28 06:36:21;;;;;;;;;8.25;8.25;;;;;4.00;80.88;99744.94;6335008;20;1819219;-42
2022/01/28 06:38:49;;;;;;;;;13.00;10.00;;;;;4.57;79.36;99739.38;6315296;20;2772159;-44
2022/01/28 06:41:18;;;;;;;;;20.00;13.33;;;;;4.49;80.06;99735.28;6287981;20;3551282;-41
2022/01/28 06:43:45;;;;;;;;;13.00;13.00;;;;;4.23;80.25;99728.22;6312703;20;2783577;-41
2022/01/28 06:46:15;;;;;;;;;27.67;21.33;;;;;4.04;81.22;99734.19;6286546;20;3570504;-46
2022/01/28 06:48:43;;;;;;;;;17.50;10.50;;;;;3.95;82.36;99739.81;6315076;20;2769423;-44
2022/01/28 06:51:11;;;;;;;;;5.75;4.00;;;;;4.26;81.46;99739.59;6303581;20;1818095;-42
2022/01/28 06:53:39;;;;;;;;;9.00;7.00;;;;;4.75;79.03;99747.63;6316409;20;2738866;-43
2022/01/28 06:56:07;;;;;;;;;6.00;6.00;;;;;4.73;79.10;99738.84;6283470;20;2748234;-42
2022/01/28 06:58:36;;;;;;;;;6.00;5.00;;;;;4.95;78.38;99729.16;6300182;20;1815257;-42
2022/01/28 07:01:04;;;;;;;;;5.75;5.75;;;;;5.09;77.55;99730.41;6334400;20;1817006;-42
2022/01/28 07:03:32;;;;;;;;;6.00;6.00;;;;;4.93;77.27;99731.00;6316229;20;2750284;-42
2022/01/28 07:06:01;;;;;;;;;6.00;6.00;;;;;5.41;76.38;99738.00;6334499;20;1821222;-42
2022/01/28 07:08:29;;;;;;;;;3.00;3.00;;;;;5.33;75.85;99734.78;6333403;20;1811825;-42
2022/01/28 07:10:58;;;;;;;;;6.75;5.00;;;;;5.91;76.11;99745.72;6336139;20;1818128;-42
2022/01/28 07:13:26;;;;;;;;;7.50;5.00;;;;;6.45;73.11;99747.94;6328885;20;1823289;-41
2022/01/28 07:15:55;;;;;;;;;7.00;3.00;;;;;6.66;73.40;99754.13;6333952;20;1811723;-45
2022/01/28 07:18:24;;;;;;;;;7.00;5.50;;;;;7.09;71.81;99746.84;6314952;20;2747158;-42
2022/01/28 07:20:52;;;;;;;;;6.00;4.00;;;;;7.20;69.85;99745.41;6283863;20;2748186;-42
2022/01/28 07:23:23;;;;;;;;;12.60;7.80;;;;;6.10;72.48;99727.19;6320528;20;2491931;-41
2022/01/28 07:25:53;;;;;;;;;9.33;8.00;;;;;5.61;73.88;99739.88;6357459;20;1807641;-42
2022/01/28 07:28:24;;;;;;;;;8.00;7.00;;;;;6.68;71.01;99737.13;6304796;20;1825833;-42
2022/01/28 07:30:53;;;;;;;;;4.00;4.00;;;;;6.65;70.39;99731.91;6317542;20;2754455;-42
2022/01/28 07:33:22;;;;;;;;;2.75;2.75;;;;;5.24;74.03;99719.19;6301563;20;1811352;-40
2022/01/28 07:35:50;;;;;;;;;2.50;2.25;;;;;5.26;74.21;99722.63;6331700;20;1811826;-45
2022/01/28 07:38:18;;;;;;;;;6.00;5.00;;;;;5.18;74.35;99711.41;6316218;20;2748243;-40
2022/01/28 07:40:46;;;;;;;;;14.50;10.00;;;;;5.22;73.61;99699.72;6315247;20;2785262;-41
2022/01/28 07:43:14;;;;;;;;;6.00;5.00;;;;;5.25;72.81;99683.63;6285504;20;2744068;-40
2022/01/28 07:45:41;;;;;;;;;11.00;10.00;;;;;5.47;72.31;99683.63;6283062;20;2780451;-41
2022/01/28 07:48:09;;;;;;;;;4.33;4.33;;;;;5.40;71.14;99691.00;6286086;20;3455516;-40
2022/01/28 07:50:38;;;;;;;;;3.25;2.25;;;;;5.45;70.40;99686.38;6334252;20;1824374;-41
2022/01/28 07:53:08;;;;;;;;;6.00;2.75;;;;;5.47;69.47;99695.13;6331156;20;1822984;-41
2022/01/28 07:55:36;;;;;;;;;5.50;3.00;;;;;5.59;68.62;99700.91;6315104;20;2756509;-41
2022/01/28 07:58:03;;;;;;;;;5.00;2.00;;;;;5.62;68.19;99698.13;6285243;20;2744025;-41
2022/01/28 08:00:32;;;;;;;;;5.00;3.00;;;;;5.80;67.02;99732.00;6334206;20;1822254;-41
2022/01/28 08:03:01;;;;;;;;;3.00;2.00;;;;;5.81;66.98;99723.06;6334132;20;1809660;-43
2022/01/28 08:05:30;;;;;;;;;1.00;1.00;;;;;5.92;67.14;99734.16;6313273;20;3432508;-41
2022/01/28 08:08:04;;;;;;;;;1.00;1.00;;;;;5.83;66.61;99731.00;6334593;20;1804613;-41
2022/01/28 08:10:33;;;;;;;;;2.50;2.50;;;;;5.94;66.71;99747.44;6332215;20;1815737;-42
2022/01/28 08:13:03;;;;;;;;;2.00;2.00;;;;;6.07;66.59;99763.78;6333802;20;1803439;-40
2022/01/28 08:15:34;;;;;;;;;1.75;0.00;;;;;6.13;66.20;99759.06;6334469;20;1807571;-43
2022/01/28 08:18:03;;;;;;;;;2.00;2.00;;;;;6.15;65.59;99767.00;6316168;20;2756489;-45
2022/01/28 08:20:31;;;;;;;;;2.00;2.00;;;;;6.10;65.33;99761.84;6285802;20;2739991;-41
2022/01/28 08:23:02;;;;;;;;;2.00;2.00;;;;;6.32;64.86;99767.16;6333833;20;1807732;-43
2022/01/28 08:25:35;;;;;;;;;1.50;1.00;;;;;6.37;64.63;99778.50;6320860;20;2727384;-41
2022/01/28 08:28:05;;;;;;;;;2.00;2.00;;;;;6.25;64.57;99771.00;6336225;20;1809692;-41
2022/01/28 08:30:38;;;;;;;;;4.25;3.75;;;;;6.26;63.15;99783.38;6335899;20;1814944;-42
2022/01/28 08:33:07;;;;;;;;;5.50;2.00;;;;;6.46;62.77;99797.69;6315521;20;2752373;-42
2022/01/28 08:35:39;;;;;;;;;1.00;1.00;;;;;6.69;62.73;99799.34;6304899;20;1803431;-41
2022/01/28 08:38:24;;;;;;;;;2.25;1.75;;;;;7.02;61.33;99813.84;6336070;20;1811666;-42
2022/01/28 08:40:56;;;;;;;;;1.00;1.00;;;;;6.97;61.72;99805.19;6334953;20;1802406;-41
2022/01/28 08:43:26;;;;;;;;;5.50;2.00;;;;;6.72;62.30;99805.44;6335555;20;1820203;-42
2022/01/28 08:45:55;;;;;;;;;3.25;1.25;;;;;6.81;61.67;99810.34;6331482;20;1809706;-41
2022/01/28 08:48:23;;;;;;;;;12.00;7.00;;;;;6.86;61.51;99798.59;6315065;20;2768089;-43
2022/01/28 08:50:53;;;;;;;;;4.00;1.75;;;;;6.76;61.22;99790.13;6301539;20;1822282;-41
2022/01/28 08:53:21;;;;;;;;;4.00;2.50;;;;;6.76;61.86;99795.47;6314130;20;2756551;-44
2022/01/28 08:55:49;;;;;;;;;4.00;4.00;;;;;6.66;60.79;99816.38;6282014;20;2737775;-41
2022/01/28 08:58:22;;;;;;;;;3.00;3.00;;;;;6.57;61.28;99816.75;6280475;20;2754467;-41
2022/01/28 09:00:52;;;;;;;;;3.50;1.00;;;;;6.47;60.97;99812.75;6280351;20;2746109;-44
2022/01/28 09:03:22;;;;;;;;;7.50;3.00;;;;;6.45;60.75;99790.59;6280242;20;2761825;-40
2022/01/28 09:05:53;;;;;;;;;1.25;1.25;;;;;6.58;60.89;99787.38;6353510;20;2483920;-43
2022/01/28 09:08:21;;;;;;;;;9.75;2.50;;;;;6.56;60.53;99785.69;6300672;20;1815841;-42
2022/01/28 09:10:58;;;;;;;;;5.00;3.00;;;;;6.72;59.98;99768.06;6313149;20;2751297;-41
2022/01/28 09:13:37;;;;;;;;;4.50;1.00;;;;;6.69;59.53;99788.66;6296752;20;1800311;-42
2022/01/28 09:16:05;;;;;;;;;4.00;1.00;;;;;6.81;59.86;99782.78;6314969;20;2759699;-43
2022/01/28 09:18:34;;;;;;;;;9.50;4.00;;;;;6.79;58.74;99774.88;6326558;20;1819123;-45
2022/01/28 09:21:03;;;;;;;;;1.00;1.00;;;;;6.90;58.27;99803.75;6328297;20;1811785;-43
2022/01/28 09:23:31;;;;;;;;;1.00;1.00;;;;;7.19;58.10;99813.13;6330629;20;1809282;-43
2022/01/28 09:25:59;;;;;;;;;15.00;5.00;;;;;6.91;57.95;99804.63;6317271;20;2782653;-42
2022/01/28 09:28:28;;;;;;;;;9.75;1.75;;;;;6.90;57.90;99801.09;6300010;20;1822235;-42
2022/01/28 09:30:57;;;;;;;;;2.25;1.00;;;;;7.09;58.15;99827.81;6336251;20;1808725;-41
2022/01/28 09:33:25;;;;;;;;;14.50;7.50;;;;;6.98;57.92;99817.63;6314821;20;2791943;-41
2022/01/28 09:35:54;;;;;;;;;3.00;2.00;;;;;6.86;58.88;99825.31;6305048;20;1807636;-42
2022/01/28 09:38:22;;;;;;;;;9.50;6.00;;;;;7.06;58.96;99833.28;6316436;20;2771108;-42
2022/01/28 09:40:52;;;;;;;;;36.50;21.00;;;;;7.16;59.55;99847.06;6284066;20;2496105;-42
2022/01/28 09:43:20;;;;;;;;;12.00;8.50;;;;;6.95;59.28;99840.88;6284033;20;2754442;-42
2022/01/28 09:45:49;;;;;;;;;2.75;2.00;;;;;7.01;59.08;99843.31;6304356;20;1820154;-42
2022/01/28 09:48:19;;;;;;;;;1.67;1.00;;;;;7.28;58.02;99837.66;6337600;20;1804559;-42
2022/01/28 09:50:47;;;;;;;;;11.00;11.00;;;;;6.98;58.33;99830.97;6311838;20;2783656;-43
2022/01/28 09:53:18;;;;;;;;;16.40;14.20;;;;;7.05;57.21;99836.88;6307492;20;2817079;-42
2022/01/28 09:55:47;;;;;;;;;7.00;2.00;;;;;7.24;57.71;99856.50;6301998;20;1822215;-39
2022/01/28 09:58:16;;;;;;;;;8.00;7.00;;;;;7.03;58.19;99849.47;6314401;20;2750286;-38
2022/01/28 10:00:45;;;;;;;;;4.00;1.50;;;;;7.30;56.98;99854.50;6287920;20;2744068;-39
2022/01/28 10:03:16;;;;;;;;;7.00;1.00;;;;;7.08;57.42;99866.09;6284442;20;2746116;-39
2022/01/28 10:05:50;;;;;;;;;2.00;2.00;;;;;6.95;57.41;99864.91;6287075;20;2754547;-39
2022/01/28 10:08:25;;;;;;;;;3.25;2.50;;;;;7.24;57.04;99851.16;6299565;20;1819143;-39
2022/01/28 10:11:04;;;;;;;;;4.00;2.00;;;;;7.24;56.93;99836.91;6316654;20;2748165;-42
2022/01/28 10:13:44;;;;;;;;;2.67;1.00;;;;;7.04;56.20;99828.00;6286492;20;3432515;-42
2022/01/28 10:16:20;;;;;;;;;8.00;4.20;;;;;6.90;56.43;99833.13;6338055;20;2752336;-41
2022/01/28 10:18:50;;;;;;;;;3.75;1.25;;;;;7.26;55.44;99837.72;6335668;20;1809714;-43
2022/01/28 10:21:37;;;;;;;;;23.00;9.00;;;;;7.12;56.04;99848.16;6314042;20;3540971;-42
2022/01/28 10:24:28;;;;;;;;;7.00;3.00;;;;;7.23;55.89;99856.56;6311895;20;2752406;-42
2022/01/28 10:27:09;;;;;;;;;1.00;1.00;;;;;7.12;56.04;99846.34;6286920;20;2730515;-43
2022/01/28 10:29:43;;;;;;;;;21.50;10.00;;;;;7.29;55.17;99826.88;6314453;20;2807664;-46
2022/01/28 10:32:21;;;;;;;;;3.00;1.50;;;;;7.28;55.15;99845.66;6305087;20;1809727;-42
2022/01/28 10:34:51;;;;;;;;;9.50;3.75;;;;;7.32;54.71;99825.88;6330194;20;1809788;-41
2022/01/28 10:37:28;;;;;;;;;11.50;3.00;;;;;7.55;54.35;99816.81;6313578;20;2772142;-43
2022/01/28 10:40:09;;;;;;;;;4.43;2.14;;;;;7.56;55.76;99813.22;6327299;20;1797179;-44
2022/01/28 10:43:47;;;;;;;;;1.00;1.00;;;;;7.97;54.21;99824.56;6327177;20;1809757;-41
2022/01/28 10:47:29;;;;;;;;;4.00;2.00;;;;;7.96;52.90;99820.19;6315491;20;2742138;-45
2022/01/28 10:49:58;;;;;;;;;17.00;5.00;;;;;8.97;51.92;99803.47;6314572;20;2798193;-46
2022/01/28 10:52:33;;;;;;;;;5.40;1.00;;;;;8.90;50.15;99820.81;6309102;20;2744074;-49
2022/01/28 10:55:02;;;;;;;;;1.00;1.00;;;;;8.52;50.69;99810.28;6333734;20;1802453;-45
2022/01/28 10:57:31;;;;;;;;;1.00;1.00;;;;;8.56;50.93;99812.75;6332544;20;1807059;-47
2022/01/28 10:59:59;;;;;;;;;6.50;6.50;;;;;8.57;50.83;99825.16;6314808;20;2744009;-45
2022/01/28 11:02:27;;;;;;;;;2.25;1.00;;;;;8.16;51.66;99831.69;6299973;20;1805666;-48
2022/01/28 11:04:57;;;;;;;;;3.00;1.00;;;;;8.15;51.21;99822.81;6328495;20;1801232;-44
2022/01/28 11:07:28;;;;;;;;;7.75;3.75;;;;;8.08;51.69;99827.63;6327024;20;1811951;-47
2022/01/28 11:09:56;;;;;;;;;16.50;6.00;;;;;8.06;52.01;99834.84;6312856;20;2781655;-46
2022/01/28 11:12:25;;;;;;;;;1.67;1.67;;;;;8.55;51.33;99827.03;6285263;20;3452316;-48
2022/01/28 11:14:53;;;;;;;;;2.50;1.00;;;;;8.26;51.46;99815.13;6295627;20;1805064;-45
2022/01/28 11:17:21;;;;;;;;;2.33;1.00;;;;;8.08;52.24;99851.69;6312738;20;3437818;-46
2022/01/28 11:19:52;;;;;;;;;10.00;2.00;;;;;8.25;51.30;99823.22;6282912;20;2766939;-46
2022/01/28 11:22:59;;;;;;;;;16.50;6.00;;;;;8.47;51.07;99818.53;6279178;20;2791997;-46
2022/01/28 11:26:20;;;;;;;;;25.00;11.33;;;;;8.41;51.30;99818.00;6282374;20;3558598;-47
2022/01/28 11:29:32;;;;;;;;;2.00;2.00;;;;;8.32;51.55;99816.59;6312161;20;2742063;-48
2022/01/28 11:32:17;;;;;;;;;7.00;4.00;;;;;8.45;50.60;99823.13;6315435;20;2747137;-45
2022/01/28 11:35:02;;;;;;;;;11.00;6.00;;;;;8.12;51.45;99810.47;6312365;20;2771183;-47
2022/01/28 11:37:33;;;;;;;;;4.33;1.00;;;;;7.77;51.87;99804.16;6284463;20;3442040;-47
2022/01/28 11:40:13;;;;;;;;;2.00;2.00;;;;;7.99;51.47;99812.00;6317908;20;2741965;-47
2022/01/28 11:42:43;;;;;;;;;3.33;1.00;;;;;7.77;51.64;99805.97;6334647;20;1799342;-47
2022/01/28 11:45:12;;;;;;;;;1.00;1.00;;;;;8.03;50.98;99821.63;6330203;20;1821343;-50
2022/01/28 11:48:01;;;;;;;;;2.00;2.00;;;;;7.97;50.64;99829.91;6329184;20;1809755;-46
2022/01/28 11:50:30;;;;;;;;;1.00;1.00;;;;;7.78;52.24;99807.72;6329619;20;1807769;-46
2022/01/28 11:52:59;;;;;;;;;4.50;1.00;;;;;8.05;51.54;99803.66;6332254;20;1801830;-45
2022/01/28 11:55:31;;;;;;;;;13.60;10.00;;;;;8.12;51.39;99802.44;6331307;20;2771089;-46
2022/01/28 11:58:12;;;;;;;;;2.00;2.00;;;;;7.90;51.29;99807.97;6285978;20;2737750;-47
2022/01/28 12:00:47;;;;;;;;;8.00;7.00;;;;;7.99;51.33;99824.50;6314740;20;2739842;-46
2022/01/28 12:03:26;;;;;;;;;3.00;1.75;;;;;8.09;51.12;99829.34;6299474;20;1813903;-48
2022/01/28 12:06:17;;;;;;;;;15.00;7.00;;;;;7.80;52.19;99846.78;6312554;20;2784704;-47
2022/01/28 12:08:46;;;;;;;;;8.50;4.00;;;;;7.83;52.17;99851.97;6282745;20;2754452;-45
2022/01/28 12:11:46;;;;;;;;;13.00;7.00;;;;;7.52;52.64;99851.69;6278954;20;2775249;-45
2022/01/28 12:14:59;;;;;;;;;11.86;6.29;;;;;7.40;53.23;99851.31;6321987;20;1803873;-46
2022/01/28 12:17:33;;;;;;;;;5.00;3.00;;;;;7.49;53.81;99855.38;6329382;20;1821207;-47
2022/01/28 12:20:46;;;;;;;;;7.75;3.75;;;;;8.03;52.50;99855.50;6331882;20;1814957;-45
2022/01/28 12:23:17;;;;;;;;;4.00;1.25;;;;;7.63;53.53;99852.03;6327020;20;1832576;-47
2022/01/28 12:25:48;;;;;;;;;2.50;2.00;;;;;8.17;52.52;99858.38;6329850;20;1806538;-46
2022/01/28 12:28:33;;;;;;;;;25.33;17.00;;;;;8.30;51.61;99858.66;6310117;20;3584686;-45
2022/01/28 12:31:19;;;;;;;;;7.00;3.00;;;;;8.40;52.08;99851.03;6314240;20;2749214;-49
2022/01/28 12:33:53;;;;;;;;;5.50;4.00;;;;;8.00;52.80;99843.13;6298640;20;1814934;-45
2022/01/28 12:36:37;;;;;;;;;8.00;6.00;;;;;8.39;52.22;99851.97;6311285;20;2750245;-48
2022/01/28 12:39:22;;;;;;;;;6.00;1.00;;;;;7.72;53.85;99861.47;6295537;20;1807607;-46
2022/01/28 12:42:04;;;;;;;;;4.50;2.00;;;;;8.16;53.10;99861.97;6313833;20;2753372;-46
2022/01/28 12:44:35;;;;;;;;;3.00;3.00;;;;;7.80;53.71;99843.25;6280327;20;2756532;-48
2022/01/28 12:47:09;;;;;;;;;1.00;1.00;;;;;7.91;53.59;99838.25;6298630;20;1809727;-48
2022/01/28 12:49:39;;;;;;;;;1.00;1.00;;;;;7.81;54.01;99851.19;6332619;20;1809705;-47
2022/01/28 12:52:09;;;;;;;;;2.75;1.00;;;;;7.02;55.68;99829.00;6332777;20;1807689;-47
2022/01/28 12:54:45;;;;;;;;;2.00;2.00;;;;;7.59;54.85;99837.97;6312308;20;2744038;-45
2022/01/28 12:57:17;;;;;;;;;1.00;1.00;;;;;7.48;55.09;99837.63;6314080;20;3436683;-48
2022/01/28 12:59:48;;;;;;;;;4.50;3.00;;;;;7.39;55.56;99844.22;6318135;20;2756492;-46
2022/01/28 13:02:19;;;;;;;;;1.50;1.00;;;;;7.41;55.64;99853.03;6303141;20;1805597;-48
2022/01/28 13:10:26;;;;;;;;;2.75;1.00;;;;;7.61;55.13;99865.50;6305897;20;1809631;-47